Time;durP1;ratioP1;P1;durP2;ratioP2;P2;SDS_P1;SDS_P2;PMS_P1;PMS_P2;Temp;Humidity;BMP_temperature;BMP_pressure;BME280_temperature;BME280_humidity;BME280_pressure;Samples;Min_cycle;Max_cycle;Signal;HPM_P1;HPM_P2
2023/01/03 00:02:01;;;;;;;4.88;2.00;;;10.30;90.40;;;;;;5045251;28;20213;-86
2023/01/03 00:04:28;;;;;;;3.95;1.95;;;10.30;90.40;;;;;;5043475;28;20204;-86
2023/01/03 00:06:55;;;;;;;4.20;1.70;;;10.30;90.40;;;;;;5042920;28;20226;-86
2023/01/03 00:09:24;;;;;;;2.78;1.83;;;10.20;90.30;;;;;;5048667;28;20245;-86
2023/01/03 00:14:40;;;;;;;4.05;1.98;;;10.20;90.30;;;;;;5045722;28;20662;-86
2023/01/03 00:17:08;;;;;;;3.53;1.90;;;10.20;90.80;;;;;;5043627;28;20202;-86
2023/01/03 00:19:37;;;;;;;2.97;1.77;;;10.20;90.70;;;;;;5047011;28;20658;-86
2023/01/03 00:22:04;;;;;;;1.98;1.77;;;10.20;90.70;;;;;;5047615;28;20207;-86
2023/01/03 00:24:31;;;;;;;3.97;2.22;;;10.20;90.90;;;;;;5045784;28;20558;-85
2023/01/03 00:26:59;;;;;;;4.25;1.75;;;10.30;91.50;;;;;;5040177;28;20236;-86
2023/01/03 00:29:26;;;;;;;2.72;2.00;;;10.40;91.60;;;;;;5047268;28;20206;-86
2023/01/03 00:31:53;;;;;;;5.25;2.15;;;10.40;91.60;;;;;;5044404;28;20198;-86
2023/01/03 00:34:20;;;;;;;4.60;2.00;;;10.40;91.70;;;;;;5044830;28;20201;-86
2023/01/03 00:36:47;;;;;;;2.90;1.85;;;10.40;92.00;;;;;;5045626;28;20217;-86
2023/01/03 00:39:14;;;;;;;4.05;1.70;;;10.50;92.10;;;;;;5038762;28;20199;-86
2023/01/03 00:41:41;;;;;;;6.22;2.10;;;10.50;91.90;;;;;;5039243;28;20195;-86
2023/01/03 00:44:10;;;;;;;5.60;2.10;;;10.60;91.90;;;;;;5043629;28;20194;-85
2023/01/03 00:46:37;;;;;;;4.80;2.13;;;10.60;92.00;;;;;;5035600;28;20223;-85
2023/01/03 00:49:05;;;;;;;3.33;1.92;;;10.60;92.00;;;;;;5037122;28;20198;-85
2023/01/03 00:51:34;;;;;;;8.95;2.50;;;10.60;92.30;;;;;;5038171;28;20268;-85
2023/01/03 00:54:02;;;;;;;3.13;2.08;;;10.60;92.30;;;;;;5037896;28;20198;-86
2023/01/03 00:56:31;;;;;;;3.38;2.10;;;10.50;92.60;;;;;;5047297;28;20203;-85
2023/01/03 00:58:58;;;;;;;3.45;2.20;;;10.50;93.10;;;;;;5036725;28;20293;-86
2023/01/03 01:01:30;;;;;;;3.20;2.15;;;10.50;93.50;;;;;;5039824;28;20686;-85
2023/01/03 01:04:05;;;;;;;4.82;2.03;;;10.50;93.60;;;;;;5040250;28;20202;-86
2023/01/03 01:06:34;;;;;;;4.70;2.53;;;10.40;94.00;;;;;;5037509;28;20236;-85
2023/01/03 01:09:03;;;;;;;2.10;1.80;;;10.20;94.90;;;;;;5044274;28;20202;-86
2023/01/03 01:11:31;;;;;;;3.83;2.30;;;10.10;95.60;;;;;;5041503;28;20190;-86
2023/01/03 01:13:58;;;;;;;3.50;1.70;;;10.10;95.70;;;;;;5041704;28;20208;-86
2023/01/03 01:16:29;;;;;;;3.95;2.33;;;10.00;96.30;;;;;;5037199;28;20202;-85
2023/01/03 01:18:56;;;;;;;2.70;1.90;;;10.00;96.50;;;;;;5048634;28;20193;-86
2023/01/03 01:21:25;;;;;;;3.13;2.08;;;10.00;96.90;;;;;;5041907;28;20194;-85
2023/01/03 01:23:53;;;;;;;5.60;2.22;;;9.90;97.40;;;;;;5038672;28;20235;-86
2023/01/03 01:26:21;;;;;;;3.08;2.05;;;9.80;97.90;;;;;;5043513;28;20716;-85
2023/01/03 01:28:49;;;;;;;3.50;2.05;;;9.70;98.20;;;;;;5049831;28;20213;-86
2023/01/03 01:31:18;;;;;;;2.80;2.20;;;9.70;98.70;;;;;;5045831;28;20189;-86
2023/01/03 01:33:46;;;;;;;5.85;2.50;;;9.70;98.70;;;;;;5052408;28;20202;-86
2023/01/03 01:36:25;;;;;;;3.20;2.10;;;9.80;98.50;;;;;;5039687;28;20202;-86
2023/01/03 01:38:55;;;;;;;2.40;1.98;;;9.80;98.00;;;;;;5040181;28;20197;-86
2023/01/03 01:46:48;;;;;;;4.13;1.80;;;9.70;97.40;;;;;;5040771;28;20237;-86
2023/01/03 01:49:20;;;;;;;4.55;2.10;;;9.60;97.60;;;;;;5050491;28;20629;-86
2023/01/03 01:51:47;;;;;;;2.28;1.73;;;9.60;97.90;;;;;;5041665;28;20670;-85
2023/01/03 01:54:15;;;;;;;3.28;2.17;;;9.60;98.00;;;;;;5041762;28;20570;-86
2023/01/03 01:56:45;;;;;;;5.68;2.35;;;9.50;98.00;;;;;;5049511;28;20620;-85
2023/01/03 01:59:12;;;;;;;3.00;2.10;;;9.50;98.60;;;;;;5044929;28;20193;-86
2023/01/03 02:01:41;;;;;;;2.72;1.85;;;9.50;98.60;;;;;;5044772;28;20205;-86
2023/01/03 02:04:14;;;;;;;3.25;1.80;;;9.40;98.30;;;;;;5042369;28;20201;-85
2023/01/03 02:06:43;;;;;;;5.85;1.70;;;9.30;98.30;;;;;;5043908;28;20218;-86
2023/01/03 02:09:10;;;;;;;2.75;1.50;;;9.20;98.20;;;;;;5052464;28;20225;-86
2023/01/03 02:11:48;;;;;;;1.98;1.27;;;9.20;97.80;;;;;;5038114;28;20209;-86
2023/01/03 02:14:31;;;;;;;2.65;1.40;;;9.10;97.50;;;;;;5051497;28;20194;-86
2023/01/03 02:17:06;;;;;;;1.98;1.40;;;9.10;97.70;;;;;;5041488;28;20658;-86
2023/01/03 02:20:25;;;;;;;1.45;1.35;;;9.00;97.60;;;;;;5047353;28;20210;-86
2023/01/03 02:23:29;;;;;;;2.05;0.98;;;9.00;97.30;;;;;;4990974;28;20234;-85
2023/01/03 02:26:19;;;;;;;1.35;1.13;;;9.10;97.10;;;;;;4990273;28;20224;-85
2023/01/03 02:29:21;;;;;;;1.10;1.00;;;9.00;96.80;;;;;;5033518;28;20546;-85
2023/01/03 02:31:57;;;;;;;1.20;1.10;;;9.00;96.80;;;;;;5039130;28;20201;-86
2023/01/03 02:34:31;;;;;;;2.83;1.00;;;8.90;96.70;;;;;;5038068;28;20206;-86
2023/01/03 02:37:12;;;;;;;0.90;0.90;;;9.00;96.70;;;;;;5042903;28;20204;-85
2023/01/03 02:39:47;;;;;;;1.42;0.85;;;9.00;95.90;;;;;;5040862;28;20220;-85
2023/01/03 02:45:09;;;;;;;1.67;0.80;;;8.90;95.90;;;;;;5036261;28;20206;-85
2023/01/03 02:47:44;;;;;;;0.95;0.90;;;8.90;96.10;;;;;;5047772;28;20225;-86
2023/01/03 02:50:12;;;;;;;0.77;0.77;;;8.90;95.90;;;;;;5040362;28;20198;-86
2023/01/03 02:52:41;;;;;;;0.90;0.90;;;8.90;95.90;;;;;;5040370;28;20203;-85
2023/01/03 02:55:13;;;;;;;0.70;0.70;;;9.00;95.10;;;;;;5036544;28;20202;-85
2023/01/03 02:57:45;;;;;;;0.63;0.63;;;8.90;94.40;;;;;;5039031;28;20222;-86
2023/01/03 03:00:16;;;;;;;0.77;0.77;;;9.00;94.50;;;;;;5040278;28;20203;-85
2023/01/03 03:02:50;;;;;;;0.80;0.73;;;8.90;94.20;;;;;;5045718;28;20209;-85
2023/01/03 03:05:22;;;;;;;0.88;0.75;;;8.90;93.90;;;;;;5044007;28;20230;-86
2023/01/03 03:07:49;;;;;;;0.80;0.80;;;9.00;94.20;;;;;;5040760;28;20209;-86
2023/01/03 03:13:14;;;;;;;0.77;0.77;;;8.90;94.10;;;;;;5047207;28;20205;-85
2023/01/03 03:15:48;;;;;;;1.35;0.90;;;8.80;94.20;;;;;;5040712;28;20233;-86
2023/01/03 03:18:20;;;;;;;1.08;0.90;;;8.70;94.40;;;;;;5037301;28;20206;-86
2023/01/03 03:26:22;;;;;;;0.80;0.80;;;8.80;95.40;;;;;;5037031;28;20229;-85
2023/01/03 03:28:52;;;;;;;0.90;0.90;;;8.70;95.80;;;;;;5044308;28;20209;-85
2023/01/03 03:31:23;;;;;;;1.17;0.80;;;8.70;95.90;;;;;;5047311;28;20221;-86
2023/01/03 03:33:56;;;;;;;2.30;0.82;;;8.80;95.90;;;;;;5049329;28;20207;-86
2023/01/03 03:36:31;;;;;;;1.35;0.77;;;8.70;96.00;;;;;;5043221;28;20661;-86
2023/01/03 03:38:58;;;;;;;0.90;0.80;;;8.50;96.70;;;;;;5039768;28;20198;-86
2023/01/03 03:47:16;;;;;;;1.10;1.00;;;8.60;97.70;;;;;;5037672;28;20697;-86
2023/01/03 03:49:48;;;;;;;1.75;1.30;;;8.60;97.90;;;;;;5043461;28;20226;-85
2023/01/03 03:52:17;;;;;;;2.42;1.58;;;8.50;98.10;;;;;;5038154;28;20207;-86
2023/01/03 03:54:48;;;;;;;1.13;1.10;;;8.50;98.40;;;;;;5042765;28;20205;-86
2023/01/03 03:57:21;;;;;;;1.88;1.33;;;8.50;98.50;;;;;;5037417;28;20202;-85
2023/01/03 03:59:52;;;;;;;0.90;0.90;;;8.50;98.40;;;;;;5039091;28;20202;-86
2023/01/03 04:02:22;;;;;;;0.90;0.90;;;8.50;98.40;;;;;;5044805;28;20194;-86
2023/01/03 04:04:55;;;;;;;1.17;1.10;;;8.60;98.40;;;;;;5042908;28;20202;-86
2023/01/03 04:07:22;;;;;;;1.13;1.02;;;8.50;98.50;;;;;;5041885;28;20234;-85
2023/01/03 04:09:49;;;;;;;1.70;1.23;;;8.40;98.70;;;;;;5046143;28;20229;-86
2023/01/03 04:12:16;;;;;;;1.08;1.02;;;8.40;99.10;;;;;;5035926;28;20206;-86
2023/01/03 04:14:42;;;;;;;1.27;1.10;;;8.40;99.20;;;;;;5042984;28;20669;-86
2023/01/03 04:17:11;;;;;;;1.95;1.33;;;8.40;99.30;;;;;;5038372;28;20212;-85
2023/01/03 04:19:37;;;;;;;1.65;0.90;;;8.30;99.70;;;;;;5045863;28;20319;-85
2023/01/03 04:22:05;;;;;;;1.30;1.20;;;8.20;99.90;;;;;;5043259;28;20194;-85
2023/01/03 04:24:32;;;;;;;1.27;1.15;;;8.20;99.90;;;;;;5045027;28;20221;-86
2023/01/03 04:26:59;;;;;;;1.20;1.10;;;8.20;99.90;;;;;;5036175;28;20229;-86
2023/01/03 04:29:26;;;;;;;1.13;1.02;;;8.10;99.90;;;;;;5040176;28;20223;-86
2023/01/03 04:31:53;;;;;;;2.50;1.30;;;8.00;99.90;;;;;;5039353;28;20205;-86
2023/01/03 04:34:20;;;;;;;1.25;1.15;;;8.00;99.90;;;;;;5041728;28;20195;-85
2023/01/03 04:36:46;;;;;;;1.20;1.10;;;8.00;99.90;;;;;;5040326;28;20572;-86
2023/01/03 04:39:15;;;;;;;2.45;1.40;;;7.90;99.90;;;;;;5040680;28;20209;-86
2023/01/03 04:41:42;;;;;;;1.30;1.20;;;7.90;99.90;;;;;;5038038;28;20198;-85
2023/01/03 04:44:08;;;;;;;1.55;1.30;;;7.90;99.90;;;;;;5044919;28;20202;-86
2023/01/03 04:46:37;;;;;;;1.40;1.30;;;7.90;99.90;;;;;;5039368;28;20593;-86
2023/01/03 04:49:06;;;;;;;1.45;1.35;;;7.90;99.90;;;;;;5037305;28;20552;-85
2023/01/03 04:51:33;;;;;;;1.85;1.30;;;7.90;99.90;;;;;;5038284;28;20732;-86
2023/01/03 04:54:04;;;;;;;1.58;1.40;;;7.90;99.90;;;;;;5041772;28;20721;-86
2023/01/03 04:56:34;;;;;;;1.50;1.40;;;7.90;99.90;;;;;;5042309;28;20198;-86
2023/01/03 04:59:02;;;;;;;3.10;1.30;;;8.00;99.90;;;;;;5044892;28;20568;-86
2023/01/03 05:01:29;;;;;;;1.92;1.80;;;8.00;99.90;;;;;;5042641;28;20208;-85
2023/01/03 05:04:04;;;;;;;2.97;2.17;;;8.00;99.90;;;;;;5043553;28;20749;-85
2023/01/03 05:06:35;;;;;;;3.17;2.30;;;8.00;99.90;;;;;;5037460;28;20221;-85
2023/01/03 05:09:01;;;;;;;2.42;1.63;;;8.10;99.90;;;;;;5043159;28;20297;-86
2023/01/03 05:11:28;;;;;;;1.92;1.70;;;8.20;99.90;;;;;;5046965;28;20705;-86
2023/01/03 05:13:56;;;;;;;3.03;1.38;;;8.30;99.90;;;;;;5042470;28;20198;-85
2023/01/03 05:16:23;;;;;;;2.15;1.48;;;8.40;99.90;;;;;;5039176;28;20212;-86
2023/01/03 05:18:52;;;;;;;1.80;1.70;;;8.30;99.90;;;;;;5042229;28;20520;-86
2023/01/03 05:26:55;;;;;;;4.13;1.63;;;8.20;99.90;;;;;;5040789;28;20283;-86
2023/01/03 05:29:24;;;;;;;2.60;1.50;;;8.30;99.90;;;;;;5044253;28;20194;-86
2023/01/03 05:31:50;;;;;;;1.70;1.60;;;8.30;99.90;;;;;;5040526;28;20575;-86
2023/01/03 05:34:17;;;;;;;1.55;1.40;;;8.20;99.90;;;;;;5043351;28;20212;-86
2023/01/03 05:36:44;;;;;;;1.85;1.50;;;8.20;99.90;;;;;;5042074;28;20206;-85
2023/01/03 05:39:11;;;;;;;1.83;1.50;;;8.30;99.90;;;;;;5045602;28;20202;-85
2023/01/03 05:44:24;;;;;;;1.58;1.48;;;8.40;99.90;;;;;;5042231;28;20253;-85
2023/01/03 05:46:51;;;;;;;2.10;1.42;;;8.50;99.90;;;;;;5042496;28;20229;-86
2023/01/03 05:49:18;;;;;;;2.72;1.48;;;8.40;99.90;;;;;;5044331;28;20198;-86
2023/01/03 05:51:45;;;;;;;1.50;1.40;;;8.40;99.90;;;;;;5039186;28;20202;-86
2023/01/03 05:54:14;;;;;;;1.60;1.50;;;8.50;99.90;;;;;;5036135;28;20194;-85
2023/01/03 05:56:41;;;;;;;1.60;1.50;;;8.50;99.40;;;;;;5043253;28;20202;-86
2023/01/03 05:59:08;;;;;;;1.98;1.58;;;8.60;98.70;;;;;;5041161;28;20203;-86
2023/01/03 06:01:36;;;;;;;1.58;1.45;;;8.60;98.40;;;;;;5046350;28;20202;-86
2023/01/03 06:04:03;;;;;;;1.30;1.20;;;8.50;98.00;;;;;;5039119;28;20291;-85
2023/01/03 06:06:34;;;;;;;1.42;1.33;;;8.60;97.10;;;;;;5047775;28;20198;-86
2023/01/03 06:09:01;;;;;;;1.40;1.30;;;8.60;95.90;;;;;;5045073;28;20288;-86
2023/01/03 06:11:28;;;;;;;1.20;1.10;;;8.50;96.00;;;;;;5044529;28;20194;-85
2023/01/03 06:13:54;;;;;;;1.30;1.20;;;8.60;95.80;;;;;;5042054;28;20441;-86
2023/01/03 06:19:08;;;;;;;1.75;1.33;;;8.50;95.80;;;;;;5037616;28;20212;-86
2023/01/03 06:21:35;;;;;;;1.63;1.35;;;8.60;95.60;;;;;;5044557;28;20295;-86
2023/01/03 06:24:03;;;;;;;1.35;1.25;;;8.60;95.50;;;;;;5045897;28;20222;-86
2023/01/03 06:26:30;;;;;;;1.23;1.13;;;8.50;95.80;;;;;;5044464;28;20213;-86
2023/01/03 06:28:57;;;;;;;1.40;1.30;;;8.60;95.30;;;;;;5044742;28;20203;-85
2023/01/03 06:31:24;;;;;;;1.60;1.50;;;8.60;95.80;;;;;;5043163;28;20202;-86
2023/01/03 06:33:51;;;;;;;1.10;1.10;;;8.50;95.70;;;;;;5048802;28;20248;-85
2023/01/03 06:36:21;;;;;;;2.28;1.60;;;8.40;96.10;;;;;;5044569;28;20221;-85
2023/01/03 06:38:48;;;;;;;2.10;1.63;;;8.60;95.40;;;;;;5040067;28;20217;-85
2023/01/03 06:41:16;;;;;;;1.50;1.40;;;8.60;95.80;;;;;;5042921;28;20210;-86
2023/01/03 06:43:43;;;;;;;1.50;1.40;;;8.50;95.20;;;;;;5043202;28;20198;-86
2023/01/03 06:54:26;;;;;;;2.08;1.48;;;8.30;94.90;;;;;;5037124;28;20272;-86
2023/01/03 06:56:54;;;;;;;1.52;1.42;;;8.30;95.20;;;;;;5043660;28;20214;-86
2023/01/03 06:59:22;;;;;;;1.88;1.73;;;8.30;95.30;;;;;;5045170;28;20212;-86
2023/01/03 07:01:50;;;;;;;1.73;1.63;;;8.30;95.40;;;;;;5038717;28;20207;-86
2023/01/03 07:04:17;;;;;;;2.00;1.85;;;8.30;95.50;;;;;;5047913;28;20217;-86
2023/01/03 07:06:46;;;;;;;2.08;1.60;;;8.30;95.40;;;;;;5042595;28;20234;-86
2023/01/03 07:09:14;;;;;;;2.13;1.92;;;8.40;95.60;;;;;;5046780;28;20201;-86
2023/01/03 07:11:41;;;;;;;1.80;1.70;;;8.30;95.10;;;;;;5045480;28;20256;-86
2023/01/03 07:14:09;;;;;;;3.00;1.70;;;8.30;95.10;;;;;;5045538;28;20209;-86
2023/01/03 07:16:38;;;;;;;3.15;1.70;;;8.30;95.30;;;;;;5044100;28;20774;-85
2023/01/03 07:19:06;;;;;;;1.80;1.70;;;8.30;95.70;;;;;;5040375;28;20576;-85
2023/01/03 07:21:34;;;;;;;3.95;1.90;;;8.30;95.80;;;;;;5042723;28;20206;-86
2023/01/03 07:24:04;;;;;;;2.28;1.70;;;8.30;95.80;;;;;;5041286;28;20229;-86
2023/01/03 07:26:32;;;;;;;2.88;1.75;;;8.20;95.70;;;;;;5040333;28;20210;-86
2023/01/03 07:29:01;;;;;;;2.83;1.98;;;8.20;95.80;;;;;;5041903;28;20229;-86
2023/01/03 07:31:28;;;;;;;2.00;1.80;;;8.30;95.80;;;;;;5044403;28;20199;-85
2023/01/03 07:33:55;;;;;;;1.90;1.73;;;8.30;95.80;;;;;;5046509;28;20205;-86
2023/01/03 07:36:22;;;;;;;3.03;1.90;;;8.40;95.80;;;;;;5038760;28;20210;-85
2023/01/03 07:38:49;;;;;;;3.85;2.00;;;8.40;96.00;;;;;;5038190;28;20202;-86
2023/01/03 07:41:18;;;;;;;2.42;1.90;;;8.30;95.80;;;;;;5043191;28;20198;-85
2023/01/03 07:43:47;;;;;;;2.30;1.83;;;8.30;95.80;;;;;;5041573;28;20195;-86
2023/01/03 07:46:16;;;;;;;2.05;1.75;;;8.30;95.80;;;;;;5048037;28;20201;-86
2023/01/03 07:48:44;;;;;;;2.20;1.92;;;8.20;96.20;;;;;;5040930;28;20222;-86
2023/01/03 07:51:12;;;;;;;2.30;2.10;;;8.20;96.40;;;;;;5045281;28;20557;-85
2023/01/03 07:53:40;;;;;;;2.17;2.00;;;8.20;96.80;;;;;;5046729;28;20213;-86
2023/01/03 07:56:11;;;;;;;2.40;2.20;;;8.20;96.90;;;;;;5040951;28;20976;-85
2023/01/03 07:58:41;;;;;;;3.58;2.35;;;8.10;97.10;;;;;;5039037;28;20197;-86
2023/01/03 08:01:10;;;;;;;4.03;2.20;;;8.10;97.20;;;;;;5045809;28;20202;-86
2023/01/03 08:03:38;;;;;;;3.28;2.60;;;8.10;97.20;;;;;;5039671;28;20209;-86
2023/01/03 08:06:07;;;;;;;2.38;2.17;;;8.20;97.30;;;;;;5044742;28;20203;-85
2023/01/03 08:08:34;;;;;;;3.67;2.10;;;8.30;97.20;;;;;;5039877;28;20225;-86
2023/01/03 08:13:47;;;;;;;4.35;2.15;;;8.40;97.30;;;;;;5036992;28;20280;-86
2023/01/03 08:16:16;;;;;;;2.58;2.33;;;8.40;97.00;;;;;;5046973;28;20213;-86
2023/01/03 08:18:44;;;;;;;3.22;2.78;;;8.50;97.10;;;;;;5043180;28;20213;-86
2023/01/03 08:21:13;;;;;;;2.85;2.53;;;8.40;96.80;;;;;;5043455;28;20205;-86
2023/01/03 08:23:40;;;;;;;3.17;2.55;;;8.40;97.10;;;;;;5040276;28;20687;-86
2023/01/03 08:26:11;;;;;;;3.33;2.90;;;8.40;96.80;;;;;;5036271;28;20203;-86
2023/01/03 08:28:38;;;;;;;3.17;2.30;;;8.40;96.50;;;;;;5037523;28;20627;-86
2023/01/03 08:31:11;;;;;;;2.72;2.53;;;8.40;96.70;;;;;;5036772;28;20206;-86
2023/01/03 08:33:41;;;;;;;3.40;2.90;;;8.50;96.60;;;;;;5037183;28;20202;-86
2023/01/03 08:36:10;;;;;;;4.32;2.58;;;8.60;96.50;;;;;;5042385;28;20209;-86
2023/01/03 08:38:42;;;;;;;4.38;3.10;;;8.50;96.00;;;;;;5040946;28;20198;-86
2023/01/03 08:41:11;;;;;;;4.10;2.53;;;8.50;96.50;;;;;;5037745;28;20643;-86
2023/01/03 08:43:40;;;;;;;3.65;2.70;;;8.40;96.80;;;;;;5044481;28;20206;-86
2023/01/03 08:46:11;;;;;;;2.97;2.33;;;8.20;96.90;;;;;;5039587;28;20206;-85
2023/01/03 08:48:38;;;;;;;2.53;2.10;;;8.20;97.10;;;;;;5039551;28;20226;-86
2023/01/03 08:51:05;;;;;;;2.60;2.40;;;8.30;96.60;;;;;;5036698;28;20666;-86
2023/01/03 08:53:32;;;;;;;2.42;2.22;;;8.40;96.10;;;;;;5041821;28;20206;-85
2023/01/03 08:55:59;;;;;;;3.05;2.20;;;8.50;96.20;;;;;;5042759;28;20205;-85
2023/01/03 08:58:26;;;;;;;2.53;2.10;;;8.40;96.30;;;;;;5042016;28;20243;-85
2023/01/03 09:00:52;;;;;;;2.83;2.50;;;8.40;96.30;;;;;;5043528;28;20702;-86
2023/01/03 09:03:21;;;;;;;3.38;2.25;;;8.40;96.20;;;;;;5045576;28;20217;-86
2023/01/03 09:05:47;;;;;;;4.50;2.50;;;8.30;96.30;;;;;;5044680;28;20204;-85
2023/01/03 09:08:14;;;;;;;3.10;2.28;;;8.30;96.40;;;;;;5041027;28;20221;-86
2023/01/03 09:10:41;;;;;;;2.53;2.00;;;8.30;96.10;;;;;;5042721;28;20226;-86
2023/01/03 09:13:08;;;;;;;5.25;2.40;;;8.30;95.80;;;;;;5040720;28;20558;-86
2023/01/03 09:15:35;;;;;;;2.95;2.30;;;8.40;96.10;;;;;;5046084;28;20235;-85
2023/01/03 09:18:02;;;;;;;4.28;2.10;;;8.30;96.50;;;;;;5036351;28;20928;-86
2023/01/03 09:20:30;;;;;;;2.78;1.90;;;8.40;95.80;;;;;;5038745;28;20208;-86
2023/01/03 09:22:57;;;;;;;3.03;2.20;;;8.50;95.30;;;;;;5038735;28;20555;-85
2023/01/03 09:25:23;;;;;;;4.43;2.25;;;8.50;95.80;;;;;;5038838;28;20199;-86
2023/01/03 09:27:50;;;;;;;2.70;2.40;;;8.40;95.80;;;;;;5039172;28;20226;-85
2023/01/03 09:30:18;;;;;;;3.13;2.70;;;8.40;95.80;;;;;;5039868;28;20198;-86
2023/01/03 09:32:45;;;;;;;2.92;2.28;;;8.50;95.80;;;;;;5038644;28;20205;-85
2023/01/03 09:35:12;;;;;;;2.78;2.08;;;8.30;96.30;;;;;;5041951;28;20650;-86
2023/01/03 09:37:40;;;;;;;4.05;2.50;;;8.20;95.70;;;;;;5041123;28;20213;-85
2023/01/03 09:40:08;;;;;;;3.65;2.60;;;8.20;96.30;;;;;;5039806;28;20198;-86
2023/01/03 09:45:26;;;;;;;2.67;2.47;;;8.30;97.30;;;;;;5042608;28;20286;-86
2023/01/03 09:47:54;;;;;;;3.13;2.53;;;8.40;96.30;;;;;;5048189;28;20260;-86
2023/01/03 09:50:23;;;;;;;3.85;2.50;;;8.30;95.80;;;;;;5042934;28;20251;-86
2023/01/03 10:04:57;;;;;;;2.42;2.22;;;8.60;95.80;;;;;;5029333;28;20241;-85
2023/01/03 10:07:38;;;;;;;3.83;2.10;;;8.80;95.70;;;;;;5043438;28;20198;-86
2023/01/03 10:10:17;;;;;;;2.40;2.20;;;8.90;95.40;;;;;;5044125;28;20230;-86
2023/01/03 10:12:57;;;;;;;2.70;2.40;;;9.00;95.60;;;;;;5046570;28;20203;-85
2023/01/03 10:15:37;;;;;;;2.85;2.40;;;9.10;95.20;;;;;;5043743;28;20208;-86
2023/01/03 10:18:17;;;;;;;4.85;3.30;;;9.10;94.40;;;;;;5047336;28;20198;-86
2023/01/03 10:20:48;;;;;;;4.38;3.10;;;9.10;94.00;;;;;;5044879;28;20293;-86
2023/01/03 10:23:16;;;;;;;3.00;2.70;;;9.00;94.30;;;;;;5048429;28;20222;-86
2023/01/03 10:25:46;;;;;;;3.30;2.53;;;8.90;94.60;;;;;;5042771;28;20281;-86
2023/01/03 10:28:18;;;;;;;4.60;3.47;;;8.90;94.90;;;;;;5047703;28;20218;-86
2023/01/03 10:31:00;;;;;;;3.30;3.00;;;9.00;95.30;;;;;;5038598;28;20210;-86
2023/01/03 10:33:33;;;;;;;5.25;3.00;;;9.00;95.90;;;;;;5039809;28;20211;-86
2023/01/03 10:36:00;;;;;;;6.07;3.63;;;8.80;95.90;;;;;;5038503;28;20195;-85
2023/01/03 10:38:28;;;;;;;5.00;3.17;;;8.70;96.40;;;;;;5041243;28;20209;-85
2023/01/03 10:40:58;;;;;;;5.03;3.13;;;8.80;96.70;;;;;;5048936;28;20210;-86
2023/01/03 10:43:31;;;;;;;3.85;3.00;;;8.70;96.60;;;;;;5047758;28;20207;-85
2023/01/03 10:45:59;;;;;;;5.88;3.60;;;8.80;97.00;;;;;;5049350;28;20202;-85
2023/01/03 10:48:34;;;;;;;4.65;3.42;;;8.80;97.40;;;;;;5037616;28;20234;-86
2023/01/03 10:51:05;;;;;;;10.57;4.10;;;8.80;97.80;;;;;;5052325;28;20646;-86
2023/01/03 10:53:38;;;;;;;5.95;3.92;;;8.80;97.70;;;;;;5038168;28;20214;-86
2023/01/03 10:56:07;;;;;;;4.63;3.30;;;8.80;98.20;;;;;;5038556;28;20209;-86
2023/01/03 10:58:34;;;;;;;4.30;3.22;;;8.90;98.00;;;;;;5042808;28;20677;-86
2023/01/03 11:01:18;;;;;;;4.15;3.17;;;8.90;97.80;;;;;;5050318;28;20198;-86
2023/01/03 11:04:05;;;;;;;3.63;3.15;;;9.00;97.20;;;;;;5046047;28;20205;-85
2023/01/03 11:06:33;;;;;;;3.00;2.78;;;9.00;96.90;;;;;;5041204;28;20209;-86
2023/01/03 11:09:03;;;;;;;3.30;2.90;;;8.90;96.90;;;;;;5034316;28;20797;-85
2023/01/03 11:11:33;;;;;;;5.07;2.92;;;8.90;96.80;;;;;;5043683;28;20204;-86
2023/01/03 11:14:21;;;;;;;3.20;2.70;;;8.90;96.50;;;;;;5037373;28;20262;-85
2023/01/03 11:16:54;;;;;;;4.88;2.90;;;8.80;96.50;;;;;;5043175;28;20272;-86
2023/01/03 11:19:21;;;;;;;3.55;2.58;;;8.80;96.80;;;;;;5041240;28;20210;-86
2023/01/03 11:21:54;;;;;;;4.72;2.88;;;8.80;97.10;;;;;;5040668;28;20573;-86
2023/01/03 11:24:38;;;;;;;4.82;2.80;;;8.80;97.20;;;;;;5045597;28;20706;-85
2023/01/03 11:27:17;;;;;;;3.88;2.90;;;8.80;97.40;;;;;;5042182;28;20194;-85
2023/01/03 11:30:00;;;;;;;3.17;2.88;;;8.90;97.10;;;;;;5042637;28;20210;-85
2023/01/03 11:32:44;;;;;;;5.10;3.20;;;8.80;97.30;;;;;;5052130;28;20216;-86
2023/01/03 11:35:37;;;;;;;4.70;2.78;;;8.80;97.50;;;;;;5044805;28;20242;-85
2023/01/03 11:38:19;;;;;;;3.55;2.80;;;8.60;98.00;;;;;;5043598;28;20198;-85
2023/01/03 11:40:54;;;;;;;4.35;2.47;;;8.50;98.40;;;;;;5042314;28;20197;-85
2023/01/03 11:43:35;;;;;;;3.28;2.50;;;8.50;98.60;;;;;;5036749;28;20222;-86
2023/01/03 11:46:20;;;;;;;4.28;2.30;;;8.50;99.10;;;;;;5044857;28;20833;-85
2023/01/03 11:49:15;;;;;;;3.78;2.42;;;8.50;98.80;;;;;;5043385;28;20230;-86
2023/01/03 11:51:52;;;;;;;3.10;2.10;;;8.60;98.90;;;;;;5045661;28;20205;-86
2023/01/03 11:54:40;;;;;;;4.03;2.00;;;8.80;98.60;;;;;;5044105;28;20208;-85
2023/01/03 11:57:16;;;;;;;2.85;1.83;;;8.80;97.90;;;;;;5046054;28;20209;-86
2023/01/03 11:59:57;;;;;;;2.60;2.05;;;8.80;98.00;;;;;;5042674;28;20214;-86
2023/01/03 12:03:05;;;;;;;2.90;1.85;;;8.80;97.70;;;;;;5044816;28;20210;-86
2023/01/03 12:05:41;;;;;;;1.95;1.80;;;8.70;97.50;;;;;;5036361;28;20206;-85
2023/01/03 12:08:32;;;;;;;1.77;1.60;;;8.80;97.60;;;;;;5049999;28;20194;-86
2023/01/03 12:11:03;;;;;;;3.42;1.67;;;9.00;97.50;;;;;;5039665;28;20237;-86
2023/01/03 12:13:37;;;;;;;1.90;1.40;;;9.20;97.00;;;;;;5032985;28;20203;-86
2023/01/03 12:16:10;;;;;;;1.40;1.20;;;9.10;96.60;;;;;;5036102;28;20211;-86
2023/01/03 12:18:44;;;;;;;2.95;1.30;;;9.10;95.90;;;;;;5036913;28;20607;-86
2023/01/03 12:21:14;;;;;;;1.55;1.40;;;9.20;96.00;;;;;;5038361;28;20209;-86
2023/01/03 12:23:44;;;;;;;1.17;1.05;;;9.20;95.90;;;;;;5044266;28;20225;-85
2023/01/03 12:26:14;;;;;;;1.20;1.10;;;9.20;95.20;;;;;;5046628;28;20198;-86
2023/01/03 12:28:47;;;;;;;3.25;1.30;;;9.40;94.70;;;;;;5044197;28;20609;-86
2023/01/03 12:31:24;;;;;;;1.13;1.10;;;9.40;93.80;;;;;;5046094;28;20677;-86
2023/01/03 12:34:02;;;;;;;2.15;1.20;;;9.40;93.40;;;;;;5045743;28;20712;-86
2023/01/03 12:36:41;;;;;;;1.45;1.25;;;9.40;93.30;;;;;;5041210;28;20202;-86
2023/01/03 12:39:27;;;;;;;1.90;1.23;;;9.50;93.20;;;;;;5049776;28;20202;-85
2023/01/03 12:42:00;;;;;;;1.35;1.10;;;9.60;92.50;;;;;;5035373;28;20199;-86
2023/01/03 12:44:35;;;;;;;4.20;1.27;;;9.50;92.60;;;;;;5042571;28;20230;-85
2023/01/03 12:47:05;;;;;;;2.05;1.13;;;9.60;92.50;;;;;;5033321;28;20198;-86
2023/01/03 12:49:38;;;;;;;2.85;1.20;;;9.60;92.30;;;;;;5038818;28;20229;-86
2023/01/03 12:52:05;;;;;;;1.45;1.05;;;9.50;93.30;;;;;;5047302;28;20205;-85
2023/01/03 12:54:40;;;;;;;2.33;1.30;;;9.20;92.30;;;;;;5047000;28;20212;-85
2023/01/03 12:57:32;;;;;;;3.55;1.40;;;9.20;92.60;;;;;;5035986;28;20205;-86
2023/01/03 13:00:41;;;;;;;3.35;1.27;;;9.10;92.90;;;;;;5035883;28;20568;-86
2023/01/03 13:03:21;;;;;;;3.28;1.40;;;9.00;93.20;;;;;;5033262;28;20202;-86
2023/01/03 13:05:51;;;;;;;2.40;1.20;;;9.10;93.60;;;;;;5039632;28;20217;-86
2023/01/03 13:08:27;;;;;;;3.97;1.58;;;9.20;93.30;;;;;;5039117;28;20198;-86
2023/01/03 13:10:59;;;;;;;4.07;1.77;;;9.30;93.00;;;;;;5044829;28;20684;-86
2023/01/03 13:13:26;;;;;;;2.28;1.65;;;9.30;92.40;;;;;;5051379;28;20190;-86
2023/01/03 13:15:53;;;;;;;4.85;1.70;;;9.40;92.50;;;;;;5042018;28;20206;-85
2023/01/03 13:18:46;;;;;;;2.80;1.60;;;9.40;91.70;;;;;;5047768;28;20194;-86
2023/01/03 13:21:50;;;;;;;2.00;1.63;;;9.30;92.00;;;;;;5041063;28;20209;-86
2023/01/03 13:24:42;;;;;;;2.30;1.50;;;9.30;91.90;;;;;;5049949;28;20223;-85
2023/01/03 13:27:35;;;;;;;1.50;1.33;;;9.30;92.30;;;;;;5049033;28;20202;-86
2023/01/03 13:30:17;;;;;;;2.45;1.58;;;9.10;92.60;;;;;;5046410;28;20234;-86
2023/01/03 13:32:51;;;;;;;3.30;1.50;;;9.10;93.20;;;;;;5042423;28;20198;-85
2023/01/03 13:35:30;;;;;;;2.85;1.65;;;9.10;93.40;;;;;;5052839;28;20194;-86
2023/01/03 13:38:11;;;;;;;1.60;1.20;;;9.10;92.60;;;;;;5052050;28;20209;-85
2023/01/03 13:40:38;;;;;;;2.05;1.50;;;9.00;93.10;;;;;;5047766;28;20212;-85
2023/01/03 13:43:16;;;;;;;2.25;1.50;;;9.00;93.00;;;;;;5041070;28;20198;-86
2023/01/03 13:45:53;;;;;;;4.43;2.08;;;8.90;93.10;;;;;;5050071;28;20618;-85
2023/01/03 13:48:30;;;;;;;1.88;1.67;;;8.90;94.20;;;;;;5038748;28;20588;-85
2023/01/03 13:51:32;;;;;;;3.20;2.00;;;8.90;93.90;;;;;;5044041;28;20305;-86
2023/01/03 13:54:02;;;;;;;3.47;1.70;;;9.00;93.80;;;;;;5043158;28;20198;-85
2023/01/03 13:56:31;;;;;;;2.08;1.30;;;9.00;93.60;;;;;;5047083;28;20205;-86
2023/01/03 13:59:07;;;;;;;1.35;1.20;;;9.10;93.30;;;;;;5040552;28;20322;-85
2023/01/03 14:01:57;;;;;;;1.92;1.30;;;9.20;93.00;;;;;;5042639;28;20651;-86
2023/01/03 14:04:56;;;;;;;1.65;1.17;;;9.40;92.60;;;;;;5036916;28;20205;-85
2023/01/03 14:07:55;;;;;;;1.63;1.00;;;9.20;92.90;;;;;;5051835;28;20206;-86
2023/01/03 14:10:37;;;;;;;1.20;1.00;;;9.20;92.60;;;;;;5043478;28;20234;-86
2023/01/03 14:13:32;;;;;;;2.13;1.15;;;9.20;92.30;;;;;;5047184;28;20194;-86
2023/01/03 14:16:21;;;;;;;1.48;1.10;;;9.20;91.90;;;;;;5044076;28;20195;-86
2023/01/03 14:19:03;;;;;;;3.10;1.25;;;8.90;92.20;;;;;;5047583;28;20201;-85
2023/01/03 14:21:44;;;;;;;1.73;1.27;;;8.80;92.90;;;;;;5045159;28;20659;-85
2023/01/03 14:24:22;;;;;;;1.85;1.33;;;8.80;93.60;;;;;;5040610;28;20218;-85